createdAt,value
2023-01-27T00:00:33.844Z,34.13
2023-01-27T00:03:00.435Z,30.13
2023-01-27T00:05:27.037Z,33.38
2023-01-27T00:07:53.636Z,33.97
2023-01-27T00:10:20.897Z,29.80
2023-01-27T00:13:14.664Z,29.15
2023-01-27T00:15:41.252Z,31.65
2023-01-27T00:18:08.324Z,33.15
2023-01-27T00:20:53.607Z,23.67
2023-01-27T00:23:40.873Z,26.98
2023-01-27T00:26:10.284Z,24.55
2023-01-27T00:28:38.741Z,21.50
2023-01-27T00:31:06.080Z,27.13
2023-01-27T00:33:33.968Z,25.95
2023-01-27T00:36:08.312Z,28.35
2023-01-27T00:38:41.036Z,20.95
2023-01-27T00:41:20.428Z,25.97
2023-01-27T00:43:48.748Z,21.92
2023-01-27T00:46:16.248Z,24.25
2023-01-27T00:48:42.913Z,18.88
2023-01-27T00:51:09.964Z,20.38
2023-01-27T00:53:37.002Z,20.10
2023-01-27T00:56:04.175Z,15.85
2023-01-27T00:58:31.026Z,18.27
2023-01-27T01:01:01.441Z,20.95
2023-01-27T01:03:31.889Z,16.80
2023-01-27T01:05:59.321Z,18.65
2023-01-27T01:08:26.643Z,21.90
2023-01-27T01:10:53.296Z,20.80
2023-01-27T01:13:21.551Z,17.52
2023-01-27T01:15:48.378Z,19.38
2023-01-27T01:18:15.454Z,20.30
2023-01-27T01:20:45.545Z,19.33
2023-01-27T01:23:12.764Z,22.33
2023-01-27T01:25:39.324Z,15.65
2023-01-27T01:28:07.108Z,17.38
2023-01-27T01:30:35.147Z,18.73
2023-01-27T01:33:01.771Z,13.25
2023-01-27T01:35:29.564Z,12.88
2023-01-27T01:37:56.218Z,12.52
2023-01-27T01:40:25.517Z,13.32
2023-01-27T01:43:00.752Z,13.85
2023-01-27T01:45:36.817Z,13.45
2023-01-27T01:48:07.237Z,11.07
2023-01-27T01:50:35.806Z,12.00
2023-01-27T01:53:03.728Z,10.00
2023-01-27T01:55:31.457Z,12.02
2023-01-27T01:57:58.053Z,13.65
2023-01-27T02:00:24.719Z,10.85
2023-01-27T02:02:51.549Z,9.27
2023-01-27T02:05:24.420Z,11.13
2023-01-27T02:07:57.404Z,10.38
2023-01-27T02:10:24.265Z,9.55
2023-01-27T02:12:50.864Z,9.73
2023-01-27T02:15:17.736Z,10.00
2023-01-27T02:17:45.233Z,7.72
2023-01-27T02:20:17.024Z,8.20
2023-01-27T02:23:21.311Z,11.63
2023-01-27T02:25:50.813Z,9.77
2023-01-27T02:28:17.739Z,9.90
2023-01-27T02:30:44.413Z,9.27
2023-01-27T02:33:12.612Z,9.52
2023-01-27T02:35:46.830Z,8.73
2023-01-27T02:38:15.842Z,10.30
2023-01-27T02:40:42.795Z,9.35
2023-01-27T02:43:09.468Z,8.85
2023-01-27T02:45:36.104Z,11.35
2023-01-27T02:48:02.751Z,11.70
2023-01-27T02:50:29.791Z,8.73
2023-01-27T02:52:56.345Z,7.10
2023-01-27T02:55:22.987Z,8.98
2023-01-27T02:57:50.990Z,10.63
2023-01-27T03:00:34.952Z,5.88
2023-01-27T03:03:01.508Z,8.57
2023-01-27T03:05:28.190Z,7.47
2023-01-27T03:07:54.766Z,6.07
2023-01-27T03:10:21.420Z,4.38
2023-01-27T03:12:47.952Z,9.68
2023-01-27T03:15:33.098Z,5.00
2023-01-27T03:18:13.413Z,7.03
2023-01-27T03:20:41.271Z,4.47
2023-01-27T03:23:08.892Z,5.05
2023-01-27T03:25:36.162Z,7.13
2023-01-27T03:28:03.130Z,6.57
2023-01-27T03:30:41.698Z,4.55
2023-01-27T03:36:12.031Z,8.10
2023-01-27T03:39:04.304Z,5.38
2023-01-27T03:41:49.463Z,6.55
2023-01-27T03:44:34.672Z,4.78
2023-01-27T03:47:01.403Z,6.15
2023-01-27T03:49:27.959Z,5.15
2023-01-27T03:51:54.501Z,6.43
2023-01-27T03:54:21.044Z,3.88
2023-01-27T03:56:48.055Z,4.30
2023-01-27T03:59:15.819Z,5.18
2023-01-27T04:01:43.777Z,5.28
2023-01-27T04:04:29.636Z,4.32
2023-01-27T04:06:58.336Z,5.90
2023-01-27T04:09:24.842Z,5.50
2023-01-27T04:12:00.739Z,3.75
2023-01-27T04:14:32.838Z,3.97
2023-01-27T04:17:02.279Z,3.55
2023-01-27T04:19:29.159Z,4.88
2023-01-27T04:21:56.560Z,4.35
2023-01-27T04:24:23.655Z,3.72
2023-01-27T04:26:57.262Z,3.85
2023-01-27T04:29:26.526Z,3.92
2023-01-27T04:31:53.715Z,4.53
2023-01-27T04:34:20.561Z,3.10
2023-01-27T04:36:47.662Z,3.53
2023-01-27T04:39:14.888Z,3.95
2023-01-27T04:41:41.582Z,3.20
2023-01-27T04:44:08.301Z,4.32
2023-01-27T04:46:34.897Z,3.28
2023-01-27T04:49:01.709Z,5.57
2023-01-27T04:51:28.552Z,3.67
2023-01-27T04:53:55.621Z,6.75
2023-01-27T04:56:28.321Z,4.10
2023-01-27T04:58:58.244Z,4.18
2023-01-27T05:01:24.789Z,3.58
2023-01-27T05:03:51.407Z,5.47
2023-01-27T05:06:17.949Z,3.90
2023-01-27T05:08:44.503Z,4.85
2023-01-27T05:11:12.136Z,5.80
2023-01-27T05:13:40.707Z,8.38
2023-01-27T05:16:19.279Z,4.32
2023-01-27T05:18:47.575Z,3.90
2023-01-27T05:21:17.562Z,5.05
2023-01-27T05:23:44.427Z,5.45
2023-01-27T05:26:13.878Z,3.55
2023-01-27T05:28:42.863Z,5.40
2023-01-27T05:31:12.216Z,3.25
2023-01-27T05:33:40.073Z,3.35
2023-01-27T05:36:08.038Z,2.72
2023-01-27T05:38:35.136Z,4.43
2023-01-27T05:41:03.946Z,3.22
2023-01-27T05:43:31.671Z,2.90
2023-01-27T05:46:22.437Z,6.57
2023-01-27T05:48:50.871Z,5.10
2023-01-27T05:51:19.287Z,4.13
2023-01-27T05:53:46.344Z,9.23
2023-01-27T05:56:14.820Z,5.95
2023-01-27T05:58:41.870Z,5.15
2023-01-27T06:01:10.734Z,6.05
2023-01-27T06:03:37.772Z,4.53
2023-01-27T06:06:05.140Z,3.42
2023-01-27T06:08:31.711Z,6.28
2023-01-27T06:10:58.539Z,10.10
2023-01-27T06:13:25.479Z,4.82
2023-01-27T06:15:52.053Z,4.57
2023-01-27T06:18:19.438Z,7.53
2023-01-27T06:20:46.359Z,8.48
2023-01-27T06:23:14.871Z,4.07
2023-01-27T06:25:44.729Z,6.60
2023-01-27T06:28:19.880Z,6.40
2023-01-27T06:30:53.703Z,4.97
2023-01-27T06:33:20.256Z,4.57
2023-01-27T06:35:47.307Z,7.03
2023-01-27T06:38:15.468Z,6.93
2023-01-27T06:40:42.917Z,7.93
2023-01-27T06:43:13.863Z,4.68
2023-01-27T06:45:41.113Z,3.72
2023-01-27T06:48:08.667Z,7.03
2023-01-27T06:50:36.607Z,6.50
2023-01-27T06:53:05.371Z,3.78
2023-01-27T06:55:32.589Z,3.60
2023-01-27T06:57:59.220Z,5.85
2023-01-27T07:00:25.854Z,5.63
2023-01-27T07:02:55.305Z,6.45
2023-01-27T07:05:21.868Z,4.57
2023-01-27T07:07:48.394Z,3.70
2023-01-27T07:10:15.351Z,4.35
2023-01-27T07:12:42.261Z,8.15
2023-01-27T07:15:09.969Z,5.20
2023-01-27T07:17:36.564Z,4.15
2023-01-27T07:20:04.397Z,3.33
2023-01-27T07:22:30.940Z,5.13
2023-01-27T07:24:57.711Z,4.45
2023-01-27T07:27:25.331Z,2.53
2023-01-27T07:29:52.153Z,2.75
2023-01-27T07:32:18.739Z,3.35
2023-01-27T07:34:45.313Z,3.28
2023-01-27T07:37:11.846Z,2.78
2023-01-27T07:39:38.448Z,3.17
2023-01-27T07:42:05.593Z,3.75
2023-01-27T07:44:32.647Z,3.10
2023-01-27T07:46:59.639Z,4.22
2023-01-27T07:49:27.549Z,2.33
2023-01-27T07:51:54.322Z,3.35
2023-01-27T07:54:21.005Z,4.00
2023-01-27T07:56:47.578Z,4.93
2023-01-27T07:59:14.400Z,2.90
2023-01-27T08:01:41.892Z,2.42
2023-01-27T08:04:08.785Z,5.40
2023-01-27T08:06:37.993Z,6.85
2023-01-27T08:09:04.557Z,3.70
2023-01-27T08:11:31.087Z,7.75
2023-01-27T08:13:57.668Z,4.00
2023-01-27T08:16:24.211Z,5.65
2023-01-27T08:18:52.789Z,3.90
2023-01-27T08:21:19.347Z,5.20
2023-01-27T08:23:46.037Z,2.92
2023-01-27T08:26:12.684Z,2.15
2023-01-27T08:28:40.376Z,4.18
2023-01-27T08:31:08.888Z,3.00
2023-01-27T08:33:36.202Z,3.65
2023-01-27T08:36:08.534Z,5.68
2023-01-27T08:38:35.183Z,3.53
2023-01-27T08:41:10.796Z,3.88
2023-01-27T08:43:37.513Z,3.05
2023-01-27T08:46:04.599Z,4.47
2023-01-27T08:48:31.832Z,5.45
2023-01-27T08:50:59.867Z,4.18
2023-01-27T08:53:27.034Z,5.80
2023-01-27T08:55:56.594Z,8.57
2023-01-27T08:58:24.330Z,3.63
2023-01-27T09:00:51.175Z,3.13
2023-01-27T09:03:17.799Z,5.97
2023-01-27T09:05:44.405Z,3.53
2023-01-27T09:08:11.308Z,4.57
2023-01-27T09:10:39.971Z,8.63
2023-01-27T09:13:10.422Z,5.63
2023-01-27T09:15:37.748Z,8.25
2023-01-27T09:18:06.581Z,4.38
2023-01-27T09:20:34.523Z,5.40
2023-01-27T09:23:02.291Z,3.30
2023-01-27T09:25:28.822Z,4.80
2023-01-27T09:27:56.409Z,4.10
2023-01-27T09:30:23.823Z,4.28
2023-01-27T09:32:50.756Z,6.63
2023-01-27T09:35:17.602Z,7.15
2023-01-27T09:37:50.013Z,4.32
2023-01-27T09:40:31.677Z,4.85
2023-01-27T09:43:15.336Z,10.57
2023-01-27T09:46:08.564Z,7.28
2023-01-27T09:48:55.306Z,5.40
2023-01-27T09:51:39.574Z,7.05
2023-01-27T09:54:08.760Z,5.63
2023-01-27T09:56:53.753Z,4.75
2023-01-27T09:59:30.570Z,4.47
2023-01-27T10:02:00.037Z,4.60
2023-01-27T10:05:00.365Z,4.75
2023-01-27T10:07:43.459Z,4.80
2023-01-27T10:10:33.482Z,3.60
2023-01-27T10:13:10.777Z,6.07
2023-01-27T10:16:13.502Z,4.22
2023-01-27T10:18:46.991Z,3.33
2023-01-27T10:21:23.087Z,5.18
2023-01-27T10:23:57.515Z,3.40
2023-01-27T10:26:39.751Z,4.43
2023-01-27T10:29:58.238Z,4.68
2023-01-27T10:32:31.529Z,3.90
2023-01-27T10:35:18.386Z,6.35
2023-01-27T10:38:05.860Z,7.63
2023-01-27T10:40:46.928Z,9.38
2023-01-27T10:43:20.243Z,4.35
2023-01-27T10:45:55.136Z,2.90
2023-01-27T10:48:44.036Z,4.10
2023-01-27T10:51:14.384Z,2.60
2023-01-27T10:54:19.923Z,3.00
2023-01-27T10:56:50.681Z,4.90
2023-01-27T10:59:26.936Z,6.20
2023-01-27T11:01:56.700Z,4.85
2023-01-27T11:04:34.839Z,2.78
2023-01-27T11:07:01.597Z,3.13
2023-01-27T11:09:37.689Z,3.47
2023-01-27T11:12:09.839Z,3.00
2023-01-27T11:14:48.388Z,3.03
2023-01-27T11:17:37.647Z,4.78
2023-01-27T11:20:13.036Z,3.28
2023-01-27T11:22:58.387Z,5.38
2023-01-27T11:25:35.479Z,4.25
2023-01-27T11:28:37.766Z,3.08
2023-01-27T11:31:37.575Z,4.30
2023-01-27T11:34:16.597Z,3.30
2023-01-27T11:36:43.295Z,3.83
2023-01-27T11:39:10.521Z,3.75
2023-01-27T11:41:39.465Z,4.63
2023-01-27T11:44:08.932Z,3.97
2023-01-27T11:46:36.170Z,4.93
2023-01-27T11:49:02.978Z,4.20
2023-01-27T11:51:38.888Z,4.75
2023-01-27T11:54:18.593Z,4.22
2023-01-27T11:56:47.481Z,2.90
2023-01-27T11:59:19.280Z,3.95
2023-01-27T12:01:47.291Z,4.03
2023-01-27T12:04:38.405Z,6.45
2023-01-27T12:07:16.545Z,5.45
2023-01-27T12:09:43.165Z,6.03
2023-01-27T12:12:15.848Z,3.03
2023-01-27T12:15:14.264Z,4.05
2023-01-27T12:17:43.167Z,3.78
2023-01-27T12:20:18.983Z,4.53
2023-01-27T12:22:48.733Z,2.10
2023-01-27T12:25:45.096Z,2.30
2023-01-27T12:28:29.799Z,1.80
2023-01-27T12:31:03.155Z,2.40
2023-01-27T12:33:32.062Z,2.40
2023-01-27T12:36:01.083Z,4.50
2023-01-27T12:38:32.480Z,2.58
2023-01-27T12:41:04.963Z,2.00
2023-01-27T12:43:31.965Z,2.28
2023-01-27T12:46:10.612Z,2.67
2023-01-27T12:48:46.772Z,3.60
2023-01-27T12:51:17.647Z,3.22
2023-01-27T12:53:44.313Z,1.55
2023-01-27T12:56:14.007Z,2.85
2023-01-27T12:58:40.551Z,1.77
2023-01-27T13:01:37.292Z,1.80
2023-01-27T13:04:04.847Z,2.03
2023-01-27T13:06:44.016Z,1.23
2023-01-27T13:09:41.457Z,0.90
2023-01-27T13:12:21.901Z,1.48
2023-01-27T13:14:54.844Z,5.88
2023-01-27T13:17:28.691Z,1.83
2023-01-27T13:22:23.078Z,13.55
2023-01-27T13:24:51.804Z,16.73
2023-01-27T13:27:20.566Z,4.32
2023-01-27T13:29:58.075Z,2.25
2023-01-27T13:32:27.668Z,11.45
2023-01-27T13:35:00.349Z,4.38
2023-01-27T13:37:35.612Z,2.78
2023-01-27T13:40:18.536Z,1.40
2023-01-27T13:42:49.626Z,5.13
2023-01-27T13:45:22.184Z,3.88
2023-01-27T13:48:04.645Z,2.40
2023-01-27T13:50:43.455Z,2.05
2023-01-27T13:53:15.991Z,3.67
2023-01-27T13:56:00.370Z,2.30
2023-01-27T13:58:44.349Z,1.98
2023-01-27T14:01:25.417Z,5.05
2023-01-27T14:04:11.166Z,5.40
2023-01-27T14:06:41.442Z,5.22
2023-01-27T14:09:16.212Z,4.72
2023-01-27T14:12:15.228Z,1.40
2023-01-27T14:14:58.582Z,2.50
2023-01-27T14:17:45.839Z,2.97
2023-01-27T14:20:42.962Z,6.93
2023-01-27T14:23:21.915Z,3.78
2023-01-27T14:25:54.566Z,4.15
2023-01-27T14:28:35.804Z,1.50
2023-01-27T14:31:30.279Z,2.00
2023-01-27T14:34:27.994Z,7.55
2023-01-27T14:37:13.333Z,4.88
2023-01-27T14:39:53.793Z,2.33
2023-01-27T14:42:55.486Z,10.70
2023-01-27T14:45:25.651Z,2.47
2023-01-27T14:48:04.118Z,1.60
2023-01-27T14:50:41.164Z,1.45
2023-01-27T14:53:44.739Z,2.80
2023-01-27T14:56:46.038Z,5.93
2023-01-27T14:59:41.408Z,1.75
2023-01-27T15:02:41.550Z,1.50
2023-01-27T15:05:17.039Z,5.53
2023-01-27T15:07:57.281Z,1.63
2023-01-27T15:10:26.787Z,2.28
2023-01-27T15:13:47.103Z,1.40
2023-01-27T15:16:25.291Z,1.80
2023-01-27T15:19:11.122Z,1.52
2023-01-27T15:22:03.351Z,1.77
2023-01-27T15:24:51.345Z,3.15
2023-01-27T15:27:18.060Z,1.77
2023-01-27T15:29:44.812Z,3.50
2023-01-27T15:32:17.367Z,1.90
2023-01-27T15:34:45.555Z,2.25
2023-01-27T15:37:28.320Z,2.17
2023-01-27T15:40:04.886Z,2.67
2023-01-27T15:42:51.482Z,2.58
2023-01-27T15:45:34.474Z,3.22
2023-01-27T15:48:02.105Z,5.30
2023-01-27T15:50:33.245Z,3.92
2023-01-27T15:53:06.492Z,6.90
2023-01-27T15:55:34.988Z,4.57
2023-01-27T15:58:46.010Z,4.95
2023-01-27T16:01:30.435Z,8.40
2023-01-27T16:04:07.645Z,4.28
2023-01-27T16:06:35.031Z,6.85
2023-01-27T16:09:06.987Z,3.97
2023-01-27T16:11:33.489Z,9.00
2023-01-27T16:14:12.301Z,5.75
2023-01-27T16:17:00.551Z,4.40
2023-01-27T16:19:30.657Z,4.80
2023-01-27T16:22:05.940Z,5.88
2023-01-27T16:24:44.067Z,5.50
2023-01-27T16:27:29.301Z,3.83
2023-01-27T16:29:59.047Z,3.88
2023-01-27T16:32:30.264Z,4.85
2023-01-27T16:35:00.697Z,4.00
2023-01-27T16:37:32.922Z,4.00
2023-01-27T16:40:06.184Z,2.88
2023-01-27T16:42:34.942Z,3.67
2023-01-27T16:45:06.112Z,3.53
2023-01-27T16:47:41.255Z,3.38
2023-01-27T16:50:37.790Z,4.38
2023-01-27T16:53:07.038Z,3.25
2023-01-27T16:55:33.642Z,3.78
2023-01-27T16:58:00.725Z,4.25
2023-01-27T17:00:32.734Z,7.45
2023-01-27T17:03:03.699Z,6.32
2023-01-27T17:05:30.654Z,4.88
2023-01-27T17:08:04.375Z,5.93
2023-01-27T17:13:01.749Z,4.60
2023-01-27T17:15:36.963Z,5.85
2023-01-27T17:18:08.996Z,6.50
2023-01-27T17:20:39.002Z,9.05
2023-01-27T17:23:05.770Z,5.65
2023-01-27T17:25:37.845Z,5.32
2023-01-27T17:28:12.045Z,5.30
2023-01-27T17:30:41.772Z,5.93
2023-01-27T17:33:18.460Z,7.82
2023-01-27T17:35:53.709Z,10.10
2023-01-27T17:38:24.261Z,23.48
2023-01-27T17:40:52.965Z,18.20
2023-01-27T17:43:31.004Z,23.80
2023-01-27T17:46:16.624Z,12.32
2023-01-27T17:49:07.315Z,10.68
2023-01-27T17:51:43.968Z,8.75
2023-01-27T17:54:32.600Z,8.18
2023-01-27T17:57:02.151Z,7.60
2023-01-27T17:59:28.830Z,10.35
2023-01-27T18:01:58.109Z,8.65
2023-01-27T18:04:25.142Z,9.90
2023-01-27T18:06:52.084Z,8.50
2023-01-27T18:09:21.407Z,8.63
2023-01-27T18:12:07.214Z,7.70
2023-01-27T18:14:35.163Z,6.88
2023-01-27T18:17:04.330Z,7.93
2023-01-27T18:19:31.138Z,8.88
2023-01-27T18:22:09.134Z,8.05
2023-01-27T18:24:35.938Z,9.57
2023-01-27T18:27:02.559Z,7.40
2023-01-27T18:29:33.714Z,9.10
2023-01-27T18:32:17.157Z,8.18
2023-01-27T18:34:55.361Z,10.02
2023-01-27T18:37:28.049Z,11.55
2023-01-27T18:39:55.887Z,6.97
2023-01-27T18:42:23.564Z,23.13
2023-01-27T18:44:51.350Z,14.00
2023-01-27T18:47:17.904Z,10.10
2023-01-27T18:50:10.565Z,10.02
2023-01-27T18:52:37.486Z,10.60
2023-01-27T18:55:19.232Z,8.80
2023-01-27T18:57:48.616Z,9.48
2023-01-27T19:00:17.691Z,11.13
2023-01-27T19:02:49.164Z,8.73
2023-01-27T19:05:21.740Z,9.57
2023-01-27T19:07:48.629Z,51.28
2023-01-27T19:10:28.144Z,10.73
2023-01-27T19:12:55.845Z,9.90
2023-01-27T19:15:24.115Z,10.45
2023-01-27T19:17:52.751Z,7.93
2023-01-27T19:20:22.420Z,9.93
2023-01-27T19:22:50.503Z,73.32
2023-01-27T19:25:17.236Z,12.93
2023-01-27T19:27:48.689Z,9.50
2023-01-27T19:30:36.245Z,8.18
2023-01-27T19:33:06.080Z,10.48
2023-01-27T19:35:32.753Z,9.70
2023-01-27T19:38:00.932Z,10.65
2023-01-27T19:40:28.919Z,9.43
2023-01-27T19:42:55.697Z,7.55
2023-01-27T19:45:22.645Z,9.35
2023-01-27T19:47:50.277Z,8.88
2023-01-27T19:50:20.471Z,9.60
2023-01-27T19:52:47.996Z,9.13
2023-01-27T19:55:16.226Z,19.30
2023-01-27T19:57:43.757Z,15.95
2023-01-27T20:00:35.011Z,64.32
2023-01-27T20:03:01.947Z,72.15
2023-01-27T20:05:29.870Z,36.50
2023-01-27T20:07:57.899Z,16.92
2023-01-27T20:10:27.338Z,13.80
2023-01-27T20:13:03.232Z,11.60
2023-01-27T20:15:36.961Z,14.52
2023-01-27T20:18:04.076Z,14.85
2023-01-27T20:20:30.653Z,17.45
2023-01-27T20:22:57.223Z,16.77
2023-01-27T20:25:26.461Z,12.70
2023-01-27T20:27:55.466Z,11.43
2023-01-27T20:30:26.028Z,10.07
2023-01-27T20:32:55.128Z,9.70
2023-01-27T20:35:22.849Z,10.32
2023-01-27T20:37:50.500Z,10.52
2023-01-27T20:40:23.266Z,14.25
2023-01-27T20:42:50.581Z,13.40
2023-01-27T20:45:17.791Z,12.25
2023-01-27T20:47:51.534Z,12.65
2023-01-27T20:52:45.037Z,13.25
2023-01-27T20:55:13.465Z,14.52
2023-01-27T20:57:40.947Z,13.35
2023-01-27T21:00:08.250Z,12.73
2023-01-27T21:02:34.875Z,12.07
2023-01-27T21:05:01.418Z,12.55
2023-01-27T21:07:28.007Z,10.93
2023-01-27T21:09:55.054Z,11.50
2023-01-27T21:12:21.939Z,9.55
2023-01-27T21:14:48.533Z,12.45
2023-01-27T21:17:15.087Z,11.40
2023-01-27T21:19:41.592Z,13.10
2023-01-27T21:22:08.242Z,10.65
2023-01-27T21:24:35.592Z,10.98
2023-01-27T21:27:02.541Z,13.10
2023-01-27T21:29:29.082Z,13.00
2023-01-27T21:31:55.755Z,10.52
2023-01-27T21:34:22.923Z,10.48
2023-01-27T21:36:49.683Z,13.52
2023-01-27T21:39:16.346Z,12.70
2023-01-27T21:41:54.812Z,10.98
2023-01-27T21:44:42.279Z,13.70
2023-01-27T21:47:13.891Z,12.15
2023-01-27T21:49:59.631Z,12.90
2023-01-27T21:52:35.375Z,12.90
2023-01-27T21:55:04.308Z,11.73
2023-01-27T21:57:31.019Z,10.80
2023-01-27T21:59:57.586Z,11.85
2023-01-27T22:02:24.343Z,12.45
2023-01-27T22:04:50.976Z,11.75
2023-01-27T22:07:18.340Z,12.43
2023-01-27T22:09:45.346Z,12.73
2023-01-27T22:12:13.623Z,12.05
2023-01-27T22:14:40.187Z,13.48
2023-01-27T22:17:06.713Z,11.75
2023-01-27T22:19:33.358Z,12.25
2023-01-27T22:21:59.869Z,12.35
2023-01-27T22:24:26.576Z,10.70
2023-01-27T22:26:53.149Z,12.82
2023-01-27T22:29:19.732Z,12.13
2023-01-27T22:31:46.362Z,11.98
2023-01-27T22:34:13.042Z,12.98
2023-01-27T22:36:39.596Z,13.63
2023-01-27T22:39:06.119Z,12.98
2023-01-27T22:41:32.707Z,12.55
2023-01-27T22:43:59.245Z,14.00
2023-01-27T22:46:25.918Z,13.75
2023-01-27T22:48:52.474Z,13.43
2023-01-27T22:51:18.995Z,14.25
2023-01-27T22:53:46.534Z,14.50
2023-01-27T22:56:13.124Z,13.02
2023-01-27T22:58:39.737Z,12.00
2023-01-27T23:01:07.048Z,12.93
2023-01-27T23:03:33.874Z,12.85
2023-01-27T23:06:07.206Z,12.02
2023-01-27T23:08:34.090Z,13.52
2023-01-27T23:11:02.209Z,13.10
2023-01-27T23:13:29.583Z,14.65
2023-01-27T23:15:56.420Z,12.57
2023-01-27T23:18:23.688Z,13.23
2023-01-27T23:20:50.448Z,13.38
2023-01-27T23:23:19.144Z,17.10
2023-01-27T23:25:46.882Z,14.82
2023-01-27T23:28:15.788Z,13.88
2023-01-27T23:30:43.986Z,15.05
2023-01-27T23:33:14.484Z,14.40
2023-01-27T23:35:41.512Z,13.13
2023-01-27T23:38:19.314Z,12.95
2023-01-27T23:40:56.005Z,14.13
2023-01-27T23:43:23.763Z,13.20
2023-01-27T23:45:54.426Z,13.98
2023-01-27T23:48:22.108Z,14.10
2023-01-27T23:50:49.143Z,12.57
2023-01-27T23:53:16.113Z,14.20
2023-01-27T23:55:42.882Z,13.85
2023-01-27T23:58:09.507Z,14.43
